• Join FlightAware (Why Join?)
  • Login
  • US Flag 
07:13PM EDT


 

Airport Tracker/Info


-or-


 

Live Flight TrackerFlight Track Log ✈ JBU233 ✈ 30-Aug-2013 ✈ KBTV - KJFK

Flight Track Log - Related Links

Times and Time Zones

All times are in EDT time to prevent confusion due to time zone crossing. See the JBU233 flight status page for this flight to view local times or setup timezone preferences in your user account.

Time Position Orientation Groundspeed Altitude Reporting Facility
EDT Latitude Longitude Course Direction KTS MPH feet Rate Location/Type
06:08AM 44.3131 -73.1769 183° South 257 296 6,700  Level Boston Center
06:09AM 44.1312 -73.2758 195° South  Level FlightAware Approximate
06:09AM 44.2400 -73.2081 197° South 290 334 10,200  Level Boston Center
06:10AM 44.0467 -73.3067 194° South  Level FlightAware Approximate
06:10AM 44.1481 -73.2444 196° South 329 379 11,900  Level Boston Center
06:11AM 43.9618 -73.3350 193° South  Level FlightAware Approximate
06:11AM 44.0456 -73.2864 196° South 373 429 14,900  Level Boston Center
06:12AM 43.9021 -73.3434 190° South  Level Estimated
06:12AM 43.9411 -73.3311 197° South 393 452 17,400  Level Boston Center
06:13AM 43.8421 -73.3476 183° South  Level FlightAware Approximate
06:13AM 43.8325 -73.3756 196° South 400 460 19,400  Level Boston Center
06:14AM 43.7175 -73.4197 196° South 414 476 21,500 1,920 Climbing Boston Center
06:15AM 43.6003 -73.4664 196° South 426 490 23,300 1,620 Climbing Boston Center
06:16AM 43.4792 -73.5158 197° South 438 504 24,800 1,560 Climbing Boston Center
06:17AM 43.3556 -73.5650 196° South 457 526 26,500 1,440 Climbing Boston Center
06:18AM 43.2258 -73.6142 195° South 469 540 27,800 720 Climbing Boston Center
06:19AM 43.0836 -73.6739 197° South 481 554 28,000 60 Climbing Boston Center
06:20AM 42.9517 -73.7278 197° South 487 560 28,000  Level Boston Center
06:21AM 42.8181 -73.7564 189° South 487 560 28,000  Level Boston Center
06:22AM 42.6803 -73.7647 183° South 494 568 28,000  Level Boston Center
06:23AM 42.5594 -73.7706 182° South 500 575 28,000  Level Boston Center
06:24AM 42.4217 -73.7817 183° South 500 575 28,000  Level Boston Center
06:25AM 42.2797 -73.7897 182° South 500 575 28,000  Level Boston Center
06:26AM 42.1422 -73.7981 183° South 500 575 28,000  Level Boston Center
06:27AM 42.0044 -73.8092 183° South 500 575 28,000  Level Boston Center
06:28AM 41.8667 -73.8311 187° South 500 575 28,000 -1,560 Level Boston Center
06:30AM 41.5469 -73.9864 200° South 470 541 22,800 -2,220 Descending New York Center
06:31AM 41.4328 -74.0419 200° South 448 516 20,500 -1,440 Descending New York Center
06:32AM 41.3217 -74.0750 193° South 431 496 20,000 -300 Descending New York Center
06:33AM 41.2067 -74.0914 186° South 419 482 20,000  Level New York Center
06:34AM 41.0894 -74.1106 187° South 419 482 20,000 -60 Level New York Center
06:35AM 40.9764 -74.1269 186° South 419 482 19,900 -540 Descending New York Center
06:36AM 40.8839 -74.0839 161° South 380 437 19,000 -1,080 Descending New York Center
06:37AM 40.7867 -74.0572 168° South 368 423 17,800 -1,560 Descending New York Center
06:38AM 40.7019 -74.0311 167° South 363 418 15,900 -2,040 Descending New York Center
06:39AM 40.6031 -73.9964 165° South 345 397 13,800 -1,380 Descending New York Center
06:40AM 40.5000 -73.9667 168° South 325 374 13,000 -660 Descending New York TRACON
06:41AM 40.4333 -73.9333 159° South 286 329 12,600 -900 Descending New York TRACON
06:42AM 40.3667 -73.8833 150° Southeast 272 313 11,400 -1,200 Descending New York TRACON
06:43AM 40.3333 -73.8167 123° Southeast 257 296 10,200 -1,440 Descending New York TRACON
06:44AM 40.3167 -73.7333 105° East 259 298 8,700 -1,200 Descending New York TRACON
06:45AM 40.3667 -73.6833 37° Northeast 230 265 8,000 -600 Descending New York TRACON
06:46AM 40.4167 -73.6167 45° Northeast 230 265 7,600 -540 Descending New York TRACON
06:47AM 40.4667 -73.5667 37° Northeast 232 267 7,000 -420 Descending New York TRACON
06:48AM 40.5000 -73.5167 49° Northeast 232 267 6,900 -720 Descending New York TRACON
06:49AM 40.5500 -73.4667 37° Northeast 229 264 5,800 -1,020 Descending New York TRACON
06:50AM 40.6000 -73.4167 37° Northeast 225 259 5,000 -480 Descending New York TRACON
06:51AM 40.6500 -73.4000 14° North 231 266 5,000 -480 Level New York TRACON
06:52AM 40.7000 -73.4333 333° Northwest 212 244 4,100 -960 Descending New York TRACON
06:53AM 40.7500 -73.4833 323° Northwest 209 241 3,000 -780 Descending New York TRACON
06:54AM 40.7833 -73.5333 311° West 206 237 2,600 -540 Descending New York TRACON
06:55AM 40.8167 -73.6000 303° West 213 245 2,000 -360 Descending New York TRACON
06:56AM 40.7833 -73.6500 229° Southwest 199 229 2,000  Level New York TRACON
06:57AM 40.7500 -73.6833 217° Southwest 174 200 2,000 -300 Level New York TRACON
06:58AM 40.7000 -73.7000 194° South 135 155 1,400 -600 Descending New York TRACON
06:59AM 40.6833 -73.7333 237° Southwest 124 143 800 -600 Descending New York TRACON